sensor_id;sensor_type;location;lat;lon;timestamp;temperature;humidity
20915;DHT22;10617;52.032;5.298;2023-04-01T00:03:54;10.10;99.90
20915;DHT22;10617;52.032;5.298;2023-04-01T00:07:57;10.10;99.90
20915;DHT22;10617;52.032;5.298;2023-04-01T00:11:59;10.10;99.90
20915;DHT22;10617;52.032;5.298;2023-04-01T00:16:00;10.10;99.90
20915;DHT22;10617;52.032;5.298;2023-04-01T00:20:04;10.10;99.90
20915;DHT22;10617;52.032;5.298;2023-04-01T00:24:06;10.10;99.90
20915;DHT22;10617;52.032;5.298;2023-04-01T00:28:08;10.10;99.90
20915;DHT22;10617;52.032;5.298;2023-04-01T00:32:09;10.00;99.90
20915;DHT22;10617;52.032;5.298;2023-04-01T00:36:12;10.00;99.90
20915;DHT22;10617;52.032;5.298;2023-04-01T00:40:48;10.00;99.90
20915;DHT22;10617;52.032;5.298;2023-04-01T00:44:42;10.00;99.90
20915;DHT22;10617;52.032;5.298;2023-04-01T00:48:48;10.00;99.90
20915;DHT22;10617;52.032;5.298;2023-04-01T00:52:50;9.90;99.90
20915;DHT22;10617;52.032;5.298;2023-04-01T00:57:05;9.90;99.90
20915;DHT22;10617;52.032;5.298;2023-04-01T01:01:07;9.90;99.90
20915;DHT22;10617;52.032;5.298;2023-04-01T01:05:13;9.80;99.90
20915;DHT22;10617;52.032;5.298;2023-04-01T01:09:19;9.80;99.90
20915;DHT22;10617;52.032;5.298;2023-04-01T01:17:29;9.70;99.90
20915;DHT22;10617;52.032;5.298;2023-04-01T01:25:58;9.70;99.90
20915;DHT22;10617;52.032;5.298;2023-04-01T01:30:11;9.70;99.90
20915;DHT22;10617;52.032;5.298;2023-04-01T01:38:19;9.70;99.90
20915;DHT22;10617;52.032;5.298;2023-04-01T01:42:22;9.70;99.90
20915;DHT22;10617;52.032;5.298;2023-04-01T01:46:26;9.70;99.90
20915;DHT22;10617;52.032;5.298;2023-04-01T01:50:28;9.60;99.90
20915;DHT22;10617;52.032;5.298;2023-04-01T01:54:30;9.60;99.90
20915;DHT22;10617;52.032;5.298;2023-04-01T01:58:32;9.60;99.90
20915;DHT22;10617;52.032;5.298;2023-04-01T02:02:41;9.60;99.90
20915;DHT22;10617;52.032;5.298;2023-04-01T02:06:46;9.60;99.90
20915;DHT22;10617;52.032;5.298;2023-04-01T02:10:56;9.50;99.90
20915;DHT22;10617;52.032;5.298;2023-04-01T02:19:01;9.50;99.90
20915;DHT22;10617;52.032;5.298;2023-04-01T02:38:25;9.50;99.90
20915;DHT22;10617;52.032;5.298;2023-04-01T02:42:27;9.40;99.90
20915;DHT22;10617;52.032;5.298;2023-04-01T02:46:28;9.40;99.90
20915;DHT22;10617;52.032;5.298;2023-04-01T02:50:30;9.40;99.90
20915;DHT22;10617;52.032;5.298;2023-04-01T02:54:31;9.40;99.90
20915;DHT22;10617;52.032;5.298;2023-04-01T02:58:33;9.40;99.90
20915;DHT22;10617;52.032;5.298;2023-04-01T03:02:35;9.40;99.90
20915;DHT22;10617;52.032;5.298;2023-04-01T03:06:37;9.40;99.90
20915;DHT22;10617;52.032;5.298;2023-04-01T03:10:39;9.40;99.90
20915;DHT22;10617;52.032;5.298;2023-04-01T03:14:40;9.40;99.90
20915;DHT22;10617;52.032;5.298;2023-04-01T03:18:42;9.40;99.90
20915;DHT22;10617;52.032;5.298;2023-04-01T03:22:45;9.40;99.90
20915;DHT22;10617;52.032;5.298;2023-04-01T03:26:47;9.40;99.90
20915;DHT22;10617;52.032;5.298;2023-04-01T03:30:48;9.40;99.90
20915;DHT22;10617;52.032;5.298;2023-04-01T03:34:50;9.40;99.90
20915;DHT22;10617;52.032;5.298;2023-04-01T03:43:45;9.40;99.90
20915;DHT22;10617;52.032;5.298;2023-04-01T03:47:46;9.50;99.90
20915;DHT22;10617;52.032;5.298;2023-04-01T03:51:48;9.50;99.90
20915;DHT22;10617;52.032;5.298;2023-04-01T03:55:50;9.50;99.90
20915;DHT22;10617;52.032;5.298;2023-04-01T03:59:52;9.50;99.90
20915;DHT22;10617;52.032;5.298;2023-04-01T04:03:54;9.50;99.90
20915;DHT22;10617;52.032;5.298;2023-04-01T04:07:56;9.60;99.90
20915;DHT22;10617;52.032;5.298;2023-04-01T04:11:57;9.60;99.90
20915;DHT22;10617;52.032;5.298;2023-04-01T04:15:59;9.60;99.90
20915;DHT22;10617;52.032;5.298;2023-04-01T04:20:01;9.60;99.90
20915;DHT22;10617;52.032;5.298;2023-04-01T04:24:03;9.70;99.90
20915;DHT22;10617;52.032;5.298;2023-04-01T04:28:04;9.70;99.90
20915;DHT22;10617;52.032;5.298;2023-04-01T04:32:06;9.70;99.90
20915;DHT22;10617;52.032;5.298;2023-04-01T04:36:08;9.70;99.90
20915;DHT22;10617;52.032;5.298;2023-04-01T04:40:09;9.80;99.90
20915;DHT22;10617;52.032;5.298;2023-04-01T04:44:11;9.80;99.90
20915;DHT22;10617;52.032;5.298;2023-04-01T04:48:13;9.80;99.90
20915;DHT22;10617;52.032;5.298;2023-04-01T04:52:19;9.80;99.90
20915;DHT22;10617;52.032;5.298;2023-04-01T04:56:21;9.80;99.90
20915;DHT22;10617;52.032;5.298;2023-04-01T05:00:23;9.90;99.90
20915;DHT22;10617;52.032;5.298;2023-04-01T05:04:25;9.90;99.90
20915;DHT22;10617;52.032;5.298;2023-04-01T05:08:27;9.90;99.90
20915;DHT22;10617;52.032;5.298;2023-04-01T05:12:28;9.90;99.90
20915;DHT22;10617;52.032;5.298;2023-04-01T05:16:30;9.90;99.90
20915;DHT22;10617;52.032;5.298;2023-04-01T05:20:32;9.90;99.90
20915;DHT22;10617;52.032;5.298;2023-04-01T05:24:34;9.90;99.90
20915;DHT22;10617;52.032;5.298;2023-04-01T05:28:36;9.90;99.90
20915;DHT22;10617;52.032;5.298;2023-04-01T05:43:04;9.90;99.90
20915;DHT22;10617;52.032;5.298;2023-04-01T05:47:06;10.00;99.90
20915;DHT22;10617;52.032;5.298;2023-04-01T05:51:12;10.00;99.90
20915;DHT22;10617;52.032;5.298;2023-04-01T05:55:13;10.00;99.90
20915;DHT22;10617;52.032;5.298;2023-04-01T05:59:15;10.00;99.90
20915;DHT22;10617;52.032;5.298;2023-04-01T06:03:17;10.00;99.90
20915;DHT22;10617;52.032;5.298;2023-04-01T06:07:19;10.00;99.90
20915;DHT22;10617;52.032;5.298;2023-04-01T06:16:15;10.00;99.90
20915;DHT22;10617;52.032;5.298;2023-04-01T06:20:27;10.10;99.90
20915;DHT22;10617;52.032;5.298;2023-04-01T06:32:40;10.10;99.90
20915;DHT22;10617;52.032;5.298;2023-04-01T06:41:17;10.10;99.90
20915;DHT22;10617;52.032;5.298;2023-04-01T06:45:33;10.10;99.90
20915;DHT22;10617;52.032;5.298;2023-04-01T06:49:41;10.10;99.90
20915;DHT22;10617;52.032;5.298;2023-04-01T06:57:47;10.10;99.90
20915;DHT22;10617;52.032;5.298;2023-04-01T07:01:58;10.10;99.90
20915;DHT22;10617;52.032;5.298;2023-04-01T07:06:02;10.10;99.90
20915;DHT22;10617;52.032;5.298;2023-04-01T07:10:12;10.10;99.90
20915;DHT22;10617;52.032;5.298;2023-04-01T07:18:25;10.20;99.90
20915;DHT22;10617;52.032;5.298;2023-04-01T07:22:35;10.20;99.90
20915;DHT22;10617;52.032;5.298;2023-04-01T07:26:37;10.20;99.90
20915;DHT22;10617;52.032;5.298;2023-04-01T07:30:44;10.30;99.90
20915;DHT22;10617;52.032;5.298;2023-04-01T07:43:04;10.30;99.90
20915;DHT22;10617;52.032;5.298;2023-04-01T07:51:39;10.30;99.90
20915;DHT22;10617;52.032;5.298;2023-04-01T07:55:48;10.30;99.90
20915;DHT22;10617;52.032;5.298;2023-04-01T08:04:24;10.30;99.90
20915;DHT22;10617;52.032;5.298;2023-04-01T08:18:41;10.40;99.90
20915;DHT22;10617;52.032;5.298;2023-04-01T08:22:45;10.40;99.90
20915;DHT22;10617;52.032;5.298;2023-04-01T08:26:51;10.40;99.90
20915;DHT22;10617;52.032;5.298;2023-04-01T08:31:03;10.50;99.90
20915;DHT22;10617;52.032;5.298;2023-04-01T08:35:15;10.50;99.90
20915;DHT22;10617;52.032;5.298;2023-04-01T08:39:24;10.60;99.90
20915;DHT22;10617;52.032;5.298;2023-04-01T08:43:40;10.60;99.90
20915;DHT22;10617;52.032;5.298;2023-04-01T09:02:17;10.80;99.90
20915;DHT22;10617;52.032;5.298;2023-04-01T09:21:08;10.80;99.90
20915;DHT22;10617;52.032;5.298;2023-04-01T09:25:21;10.90;99.90
20915;DHT22;10617;52.032;5.298;2023-04-01T09:38:29;11.10;99.90
20915;DHT22;10617;52.032;5.298;2023-04-01T09:42:45;11.10;99.90
20915;DHT22;10617;52.032;5.298;2023-04-01T09:46:54;11.10;99.90
20915;DHT22;10617;52.032;5.298;2023-04-01T09:51:01;11.10;99.90
20915;DHT22;10617;52.032;5.298;2023-04-01T10:16:19;11.10;99.90
20915;DHT22;10617;52.032;5.298;2023-04-01T10:28:53;11.10;99.90
20915;DHT22;10617;52.032;5.298;2023-04-01T11:04:33;12.20;99.90
20915;DHT22;10617;52.032;5.298;2023-04-01T11:08:57;12.20;99.90
20915;DHT22;10617;52.032;5.298;2023-04-01T11:21:35;12.20;99.90
20915;DHT22;10617;52.032;5.298;2023-04-01T11:25:48;12.30;99.90
20915;DHT22;10617;52.032;5.298;2023-04-01T11:34:16;13.00;99.90
20915;DHT22;10617;52.032;5.298;2023-04-01T11:38:24;13.20;99.90
20915;DHT22;10617;52.032;5.298;2023-04-01T11:42:31;13.20;99.90
20915;DHT22;10617;52.032;5.298;2023-04-01T12:03:51;12.80;99.90
20915;DHT22;10617;52.032;5.298;2023-04-01T12:08:18;13.10;99.90
20915;DHT22;10617;52.032;5.298;2023-04-01T12:12:39;13.30;99.90
20915;DHT22;10617;52.032;5.298;2023-04-01T12:30:32;13.20;99.90
20915;DHT22;10617;52.032;5.298;2023-04-01T12:34:40;13.00;99.90
20915;DHT22;10617;52.032;5.298;2023-04-01T13:16:31;12.30;99.90
20915;DHT22;10617;52.032;5.298;2023-04-01T13:24:41;12.40;99.90
20915;DHT22;10617;52.032;5.298;2023-04-01T13:28:50;12.40;99.90
20915;DHT22;10617;52.032;5.298;2023-04-01T13:33:01;12.50;99.90
20915;DHT22;10617;52.032;5.298;2023-04-01T13:37:11;12.60;99.90
20915;DHT22;10617;52.032;5.298;2023-04-01T13:53:34;12.70;99.90
20915;DHT22;10617;52.032;5.298;2023-04-01T14:01:42;12.50;99.90
20915;DHT22;10617;52.032;5.298;2023-04-01T14:09:59;12.30;99.90
20915;DHT22;10617;52.032;5.298;2023-04-01T14:18:26;12.10;99.90
20915;DHT22;10617;52.032;5.298;2023-04-01T14:22:38;12.00;99.90
20915;DHT22;10617;52.032;5.298;2023-04-01T14:39:25;11.90;99.90
20915;DHT22;10617;52.032;5.298;2023-04-01T14:51:46;12.30;99.90
20915;DHT22;10617;52.032;5.298;2023-04-01T14:55:52;12.30;99.90
20915;DHT22;10617;52.032;5.298;2023-04-01T14:59:59;12.40;99.90
20915;DHT22;10617;52.032;5.298;2023-04-01T15:04:10;12.30;99.90
20915;DHT22;10617;52.032;5.298;2023-04-01T15:08:20;12.30;99.90
20915;DHT22;10617;52.032;5.298;2023-04-01T15:12:43;12.20;99.90
20915;DHT22;10617;52.032;5.298;2023-04-01T15:21:27;12.10;99.90
20915;DHT22;10617;52.032;5.298;2023-04-01T15:38:05;12.10;99.90
20915;DHT22;10617;52.032;5.298;2023-04-01T16:11:20;11.80;99.90
20915;DHT22;10617;52.032;5.298;2023-04-01T16:20:19;11.90;99.90
20915;DHT22;10617;52.032;5.298;2023-04-01T16:25:10;11.80;99.90
20915;DHT22;10617;52.032;5.298;2023-04-01T16:28:54;11.70;99.90
20915;DHT22;10617;52.032;5.298;2023-04-01T16:33:02;11.70;99.90
20915;DHT22;10617;52.032;5.298;2023-04-01T16:37:07;11.60;99.90
20915;DHT22;10617;52.032;5.298;2023-04-01T16:41:34;11.60;99.90
20915;DHT22;10617;52.032;5.298;2023-04-01T16:45:45;11.50;99.90
20915;DHT22;10617;52.032;5.298;2023-04-01T16:54:12;11.40;99.90
20915;DHT22;10617;52.032;5.298;2023-04-01T16:58:23;11.40;99.90
20915;DHT22;10617;52.032;5.298;2023-04-01T17:02:27;11.40;99.90
20915;DHT22;10617;52.032;5.298;2023-04-01T17:24:04;11.10;99.90
20915;DHT22;10617;52.032;5.298;2023-04-01T17:27:53;11.00;99.90
20915;DHT22;10617;52.032;5.298;2023-04-01T18:05:11;10.60;99.90
20915;DHT22;10617;52.032;5.298;2023-04-01T18:10:02;10.50;99.90
20915;DHT22;10617;52.032;5.298;2023-04-01T18:21:53;10.40;99.90
20915;DHT22;10617;52.032;5.298;2023-04-01T18:26:08;10.40;99.90
20915;DHT22;10617;52.032;5.298;2023-04-01T18:34:18;10.30;99.90
20915;DHT22;10617;52.032;5.298;2023-04-01T18:38:31;10.40;99.90
20915;DHT22;10617;52.032;5.298;2023-04-01T18:42:41;10.30;99.90
20915;DHT22;10617;52.032;5.298;2023-04-01T18:55:20;10.30;99.90
20915;DHT22;10617;52.032;5.298;2023-04-01T18:59:38;10.20;99.90
20915;DHT22;10617;52.032;5.298;2023-04-01T19:04:03;10.10;99.90
20915;DHT22;10617;52.032;5.298;2023-04-01T19:35:12;10.00;99.90
20915;DHT22;10617;52.032;5.298;2023-04-01T19:52:05;9.90;99.90
20915;DHT22;10617;52.032;5.298;2023-04-01T19:56:17;9.80;99.90
20915;DHT22;10617;52.032;5.298;2023-04-01T20:00:27;9.80;99.90
20915;DHT22;10617;52.032;5.298;2023-04-01T20:04:34;9.80;99.90
20915;DHT22;10617;52.032;5.298;2023-04-01T20:46:39;9.40;99.90
20915;DHT22;10617;52.032;5.298;2023-04-01T20:50:50;9.40;99.90
20915;DHT22;10617;52.032;5.298;2023-04-01T21:51:47;8.90;99.90
20915;DHT22;10617;52.032;5.298;2023-04-01T22:12:30;8.60;99.90
20915;DHT22;10617;52.032;5.298;2023-04-01T22:20:50;8.60;99.90
20915;DHT22;10617;52.032;5.298;2023-04-01T22:37:23;8.40;99.90
20915;DHT22;10617;52.032;5.298;2023-04-01T22:49:59;8.40;99.90
20915;DHT22;10617;52.032;5.298;2023-04-01T22:58:30;8.30;99.90
20915;DHT22;10617;52.032;5.298;2023-04-01T23:02:33;8.30;99.90
20915;DHT22;10617;52.032;5.298;2023-04-01T23:06:40;8.20;99.90
20915;DHT22;10617;52.032;5.298;2023-04-01T23:10:51;8.20;99.90
20915;DHT22;10617;52.032;5.298;2023-04-01T23:15:00;8.20;99.90
20915;DHT22;10617;52.032;5.298;2023-04-01T23:19:16;8.20;99.90
20915;DHT22;10617;52.032;5.298;2023-04-01T23:27:33;8.10;99.90
20915;DHT22;10617;52.032;5.298;2023-04-01T23:31:41;8.10;99.90
20915;DHT22;10617;52.032;5.298;2023-04-01T23:35:50;8.10;99.90
20915;DHT22;10617;52.032;5.298;2023-04-01T23:39:56;8.10;99.90
20915;DHT22;10617;52.032;5.298;2023-04-01T23:43:59;8.00;99.90
20915;DHT22;10617;52.032;5.298;2023-04-01T23:48:01;8.00;99.90
20915;DHT22;10617;52.032;5.298;2023-04-01T23:52:08;8.00;99.90
20915;DHT22;10617;52.032;5.298;2023-04-01T23:56:11;8.00;99.90
